This is the latest recevied weather packets stored in our database for station/object VA2IEI-13. If no packets are shown the sender has not sent any weather packets the latest 10 day(s).
| Time | Temp. | Humidity | Pressure | Rain* | Wind** | Luminosity | Snow |
|---|---|---|---|---|---|---|---|
| 1778117457 | 6.67° C | 92% | 1010 hPa | 0 mm | - | - | - |
| 1778115645 | 6.11° C | 92% | 1010.1 hPa | 0 mm | - | - | - |
| 1778109657 | 6.67° C | 91% | 1009.9 hPa | 0 mm | - | - | - |
| 1778093468 | 6.67° C | 92% | 1011.1 hPa | 0.76 mm | - | - | - |
| 1778089232 | 6.11° C | 91% | 1011.5 hPa | 1.78 mm | - | - | - |
| 1778082622 | 6.11° C | 90% | 1012.5 hPa | 2.54 mm | - | - | - |
| 1778076664 | 7.22° C | 90% | 1012.5 hPa | 1.27 mm | - | - | - |
| 1778073622 | 7.22° C | 90% | 1012.5 hPa | 1.27 mm | - | - | - |
| 1778072495 | 7.22° C | 90% | 1012.6 hPa | 1.78 mm | - | - | - |
| 1778071866 | 7.22° C | 90% | 1012.5 hPa | 1.52 mm | - | - | - |
| 1778071262 | 7.22° C | 89% | 1012.5 hPa | 1.52 mm | - | - | - |
| 1778069433 | 8.33° C | 89% | 1012.3 hPa | 0.76 mm | - | - | - |
| 1778064663 | 9.44° C | 88% | 1011.4 hPa | 0 mm | - | - | - |
| 1778064059 | 9.44° C | 88% | 1011.2 hPa | 0 mm | - | - | - |
| 1778061661 | 10° C | 87% | 1010.8 hPa | 0 mm | - | - | - |
| 1778060435 | 10° C | 87% | 1010.7 hPa | 0 mm | - | - | - |
| 1778058621 | 10° C | 86% | 1011.1 hPa | 0 mm | - | - | - |
| 1778056859 | 10° C | 87% | 1010.8 hPa | 0 mm | - | - | - |
| 1778055639 | 10.56° C | 86% | 1010.7 hPa | 0 mm | - | - | - |
| 1778053209 | 10.56° C | 87% | 1010.3 hPa | 0 mm | - | - | - |
| 1778047222 | 11.67° C | 81% | 1009.1 hPa | 0 mm | - | - | - |
| 1778044870 | 12.22° C | 82% | 1008.7 hPa | 0 mm | - | - | - |
| 1778040638 | 12.78° C | 85% | 1007.9 hPa | 0 mm | - | - | - |
| 1778040056 | 12.78° C | 86% | 1007.6 hPa | 0 mm | - | - | - |
| 1778039457 | 12.78° C | 86% | 1007.8 hPa | 0 mm | - | - | - |
* Rain latest hour (hover to see other rain measurements)
** Current wind speed in m/s (hover to see current wind gust speed)